Time;durP1;ratioP1;P1;durP2;ratioP2;P2;SDS_P1;SDS_P2;PMS_P1;PMS_P2;Temp;Humidity;BMP_temperature;BMP_pressure;BME280_temperature;BME280_humidity;BME280_pressure;Samples;Min_cycle;Max_cycle;Signal;HPM_P1;HPM_P2
2023/05/14 00:00:14;;;;;;;2.15;1.23;;;15.10;93.30;;;;;;5035485;28;20486;-72
2023/05/14 00:02:40;;;;;;;2.20;1.38;;;15.20;93.40;;;;;;5032369;28;20083;-73
2023/05/14 00:05:07;;;;;;;3.28;1.25;;;15.10;93.40;;;;;;5032379;28;20495;-71
2023/05/14 00:07:32;;;;;;;3.17;1.40;;;15.20;93.90;;;;;;5032430;28;20029;-71
2023/05/14 00:09:58;;;;;;;4.65;1.92;;;15.10;93.80;;;;;;5032269;28;20038;-71
2023/05/14 00:12:25;;;;;;;2.47;1.42;;;15.20;93.90;;;;;;5032163;28;20026;-71
2023/05/14 00:14:51;;;;;;;2.20;1.30;;;15.20;93.60;;;;;;5032288;28;20034;-71
2023/05/14 00:17:17;;;;;;;2.55;1.13;;;15.20;93.70;;;;;;5032131;28;20052;-71
2023/05/14 00:19:43;;;;;;;5.10;1.20;;;15.20;93.60;;;;;;5032425;28;20514;-71
2023/05/14 00:22:09;;;;;;;1.67;1.13;;;15.20;93.60;;;;;;5034659;28;20036;-71
2023/05/14 00:24:35;;;;;;;3.25;1.35;;;15.20;93.40;;;;;;5036260;28;20032;-72
2023/05/14 00:27:02;;;;;;;2.30;1.05;;;15.20;93.20;;;;;;5036025;28;20033;-72
2023/05/14 00:29:28;;;;;;;4.78;1.55;;;15.20;93.20;;;;;;5045653;28;20049;-71
2023/05/14 00:31:54;;;;;;;1.40;1.05;;;15.20;93.20;;;;;;5055969;28;20078;-71
2023/05/14 00:34:20;;;;;;;3.00;1.30;;;15.20;93.30;;;;;;5056318;28;20056;-71
2023/05/14 00:36:46;;;;;;;4.18;1.20;;;15.20;93.20;;;;;;5056498;28;20071;-72
2023/05/14 00:39:13;;;;;;;3.22;1.35;;;15.20;93.00;;;;;;5056286;28;20040;-72
2023/05/14 00:41:42;;;;;;;1.33;1.08;;;15.20;93.00;;;;;;5056381;28;20096;-76
2023/05/14 00:44:08;;;;;;;3.00;1.27;;;15.20;92.90;;;;;;5056427;28;20076;-75
2023/05/14 01:11:41;;;;;;;4.95;1.77;;;15.30;93.10;;;;;;4822746;29;20513;-73
2023/05/14 01:14:47;;;;;;;2.63;1.70;;;15.20;93.20;;;;;;4823372;29;20114;-72
2023/05/14 01:17:18;;;;;;;3.03;1.63;;;15.30;93.30;;;;;;4828880;29;20050;-71
2023/05/14 01:19:46;;;;;;;2.28;1.58;;;15.30;93.60;;;;;;5019806;28;20372;-72
2023/05/14 01:22:12;;;;;;;3.35;2.15;;;15.30;93.50;;;;;;5054472;28;20391;-71
2023/05/14 01:24:39;;;;;;;3.10;1.88;;;15.30;93.20;;;;;;5054917;28;20386;-72
2023/05/14 01:27:34;;;;;;;3.38;1.90;;;15.30;93.30;;;;;;5037192;28;20496;-72
2023/05/14 01:30:21;;;;;;;2.72;1.83;;;15.30;93.30;;;;;;5036825;28;20399;-72
2023/05/14 01:32:53;;;;;;;3.78;1.77;;;15.30;93.40;;;;;;5054699;28;20105;-72
2023/05/14 01:35:23;;;;;;;1.92;1.67;;;15.30;93.50;;;;;;5054631;28;20132;-72
2023/05/14 01:37:50;;;;;;;4.80;1.65;;;15.30;93.50;;;;;;5054490;28;20045;-71
2023/05/14 01:40:16;;;;;;;2.67;1.73;;;15.30;93.50;;;;;;5054620;28;20091;-72
2023/05/14 01:42:42;;;;;;;2.70;2.10;;;15.30;93.40;;;;;;5054529;28;20033;-72
2023/05/14 01:45:09;;;;;;;3.75;2.13;;;15.30;93.40;;;;;;5054426;28;20544;-72
2023/05/14 01:47:35;;;;;;;2.88;2.03;;;15.30;93.50;;;;;;5054456;28;20037;-72
2023/05/14 01:50:00;;;;;;;3.15;2.20;;;15.30;93.30;;;;;;5054497;28;20070;-72
2023/05/14 01:52:26;;;;;;;4.05;1.63;;;15.30;93.30;;;;;;5054599;28;20079;-72
2023/05/14 01:54:52;;;;;;;3.95;1.95;;;15.30;93.30;;;;;;5036289;28;20041;-72
2023/05/14 01:57:18;;;;;;;2.30;1.67;;;15.30;93.30;;;;;;5054430;28;20080;-76
2023/05/14 01:59:43;;;;;;;3.17;1.90;;;15.40;93.30;;;;;;5054417;28;20024;-77
2023/05/14 02:02:09;;;;;;;4.38;1.90;;;15.40;93.60;;;;;;5054471;28;20065;-77
2023/05/14 02:04:35;;;;;;;3.10;1.70;;;15.30;93.60;;;;;;5054155;28;20036;-78
2023/05/14 02:07:01;;;;;;;2.95;1.77;;;15.40;93.60;;;;;;5054128;28;20068;-77
2023/05/14 02:09:26;;;;;;;3.60;1.80;;;15.30;93.70;;;;;;5054065;28;20059;-77
2023/05/14 02:11:52;;;;;;;2.97;1.70;;;15.30;93.70;;;;;;5054219;28;20083;-77
2023/05/14 02:14:18;;;;;;;2.28;1.70;;;15.30;93.90;;;;;;5036131;28;20044;-75
2023/05/14 02:16:44;;;;;;;2.10;1.73;;;15.30;94.00;;;;;;5054062;28;20040;-76
2023/05/14 02:19:10;;;;;;;2.88;1.60;;;15.30;94.10;;;;;;5054740;28;20048;-72
2023/05/14 02:21:35;;;;;;;3.13;1.80;;;15.30;94.20;;;;;;5054680;28;20036;-75
2023/05/14 02:24:01;;;;;;;4.38;2.10;;;15.30;94.30;;;;;;5054580;28;20521;-71
2023/05/14 02:26:27;;;;;;;4.55;1.83;;;15.30;94.60;;;;;;5054479;28;20060;-72
2023/05/14 02:28:53;;;;;;;7.32;3.22;;;15.30;94.60;;;;;;5054218;28;20049;-72
2023/05/14 02:49:21;;;;;;;5.82;2.15;;;15.30;95.90;;;;;;5011941;28;20036;-72
2023/05/14 02:52:41;;;;;;;7.38;2.00;;;15.30;96.30;;;;;;5011001;28;20427;-72
2023/05/14 02:58:31;;;;;;;1.60;1.50;;;15.20;96.10;;;;;;4951380;28;20605;-75
2023/05/14 03:00:57;;;;;;;2.00;1.65;;;15.20;96.30;;;;;;4992991;28;20026;-71
2023/05/14 03:03:23;;;;;;;2.55;1.83;;;15.20;96.30;;;;;;5053165;28;20037;-75
2023/05/14 03:05:49;;;;;;;2.85;1.90;;;15.10;96.40;;;;;;5053405;28;20029;-76
2023/05/14 03:08:15;;;;;;;2.72;1.90;;;15.10;96.90;;;;;;5053115;28;20481;-76
2023/05/14 03:10:41;;;;;;;4.80;2.25;;;15.10;97.20;;;;;;5053168;28;20071;-76
2023/05/14 03:13:07;;;;;;;4.18;1.88;;;15.10;97.60;;;;;;5052988;28;20047;-74
2023/05/14 03:15:33;;;;;;;2.80;1.80;;;15.10;97.80;;;;;;5053039;28;20479;-75
2023/05/14 03:17:58;;;;;;;3.13;1.63;;;15.10;98.10;;;;;;5052863;28;20041;-75
2023/05/14 03:20:25;;;;;;;2.88;1.80;;;15.10;98.50;;;;;;5035182;28;20037;-76
2023/05/14 03:22:51;;;;;;;4.55;2.30;;;15.10;98.70;;;;;;5052601;28;20475;-76
2023/05/14 03:25:17;;;;;;;4.93;1.67;;;15.10;98.90;;;;;;5052924;28;20037;-77
2023/05/14 03:27:43;;;;;;;3.33;1.83;;;15.00;99.00;;;;;;5052777;28;20075;-75
2023/05/14 03:30:10;;;;;;;5.78;1.95;;;15.00;99.10;;;;;;5052439;28;20186;-76
2023/05/14 03:32:36;;;;;;;5.97;1.80;;;15.00;99.30;;;;;;5052660;28;20037;-76
2023/05/14 03:35:02;;;;;;;5.00;1.98;;;15.00;99.20;;;;;;5052658;28;20090;-76
2023/05/14 03:37:28;;;;;;;5.57;2.33;;;15.00;99.40;;;;;;5052365;28;20052;-76
2023/05/14 03:39:53;;;;;;;5.05;1.98;;;15.00;99.50;;;;;;5052896;28;20029;-75
2023/05/14 03:42:19;;;;;;;2.97;1.83;;;15.00;99.40;;;;;;5052724;28;20067;-73
2023/05/14 03:44:45;;;;;;;3.33;2.00;;;15.00;99.90;;;;;;5052776;28;20044;-72
2023/05/14 03:47:11;;;;;;;2.72;2.17;;;14.90;99.90;;;;;;5052465;28;20044;-74
2023/05/14 03:49:36;;;;;;;1.83;1.67;;;14.90;99.90;;;;;;5052628;28;20041;-72
2023/05/14 03:52:02;;;;;;;3.80;1.98;;;14.90;99.90;;;;;;5052559;28;20037;-72
2023/05/14 03:54:28;;;;;;;3.38;2.53;;;14.90;99.90;;;;;;5053079;28;20051;-73
2023/05/14 03:56:54;;;;;;;3.67;2.10;;;14.90;99.90;;;;;;5056168;28;20048;-72
2023/05/14 03:59:20;;;;;;;4.25;2.30;;;14.80;99.90;;;;;;5056309;28;20041;-73
2023/05/14 04:01:46;;;;;;;5.53;2.75;;;14.90;99.90;;;;;;5038648;28;20044;-72
2023/05/14 04:04:11;;;;;;;2.97;2.10;;;14.90;99.90;;;;;;5056482;28;20033;-73
2023/05/14 04:06:37;;;;;;;3.95;2.15;;;14.80;99.90;;;;;;5056742;28;20040;-71
2023/05/14 04:09:03;;;;;;;6.95;2.20;;;14.90;99.90;;;;;;5039271;28;20391;-72
2023/05/14 04:11:29;;;;;;;7.00;2.83;;;14.90;99.90;;;;;;5057007;28;20032;-72
2023/05/14 04:13:55;;;;;;;9.23;2.78;;;14.90;99.90;;;;;;5039194;28;20040;-71
2023/05/14 04:16:23;;;;;;;4.85;2.45;;;14.90;99.90;;;;;;5056803;28;20382;-72
2023/05/14 04:19:32;;;;;;;5.50;2.70;;;14.90;99.90;;;;;;5056376;28;20040;-72
2023/05/14 04:39:11;;;;;;;3.75;2.60;;;14.80;99.90;;;;;;5003110;28;20181;-71
2023/05/14 04:45:01;;;;;;;3.80;3.38;;;14.80;99.90;;;;;;5047639;28;20033;-72
2023/05/14 04:47:47;;;;;;;3.60;2.50;;;14.80;99.90;;;;;;5055864;28;20450;-72
2023/05/14 04:50:13;;;;;;;4.55;2.50;;;14.80;99.90;;;;;;5055556;28;20382;-72
2023/05/14 04:52:40;;;;;;;2.90;2.42;;;14.80;99.90;;;;;;5055677;28;20044;-72
2023/05/14 04:55:07;;;;;;;2.80;2.25;;;14.80;99.90;;;;;;5055647;28;20426;-72
2023/05/14 04:57:33;;;;;;;5.85;5.22;;;14.80;99.90;;;;;;5037722;28;20505;-72
2023/05/14 04:59:58;;;;;;;7.32;5.15;;;14.80;99.90;;;;;;5055498;28;20065;-72
2023/05/14 05:02:24;;;;;;;4.65;2.50;;;14.80;99.90;;;;;;5055566;28;20041;-73
2023/05/14 05:04:50;;;;;;;3.40;2.28;;;14.80;99.90;;;;;;5055496;28;20131;-72
2023/05/14 05:07:16;;;;;;;3.63;2.13;;;14.80;99.90;;;;;;5054685;28;20033;-72
2023/05/14 05:09:42;;;;;;;4.38;2.33;;;14.80;99.90;;;;;;5055380;28;20068;-72
2023/05/14 05:12:09;;;;;;;3.05;2.10;;;14.80;99.90;;;;;;5055233;28;20095;-73
2023/05/14 05:14:35;;;;;;;9.70;2.20;;;14.80;99.90;;;;;;5054946;28;20033;-72
2023/05/14 05:17:00;;;;;;;3.22;1.90;;;14.80;99.90;;;;;;5054912;28;20044;-71
2023/05/14 05:19:26;;;;;;;4.82;1.88;;;14.80;99.90;;;;;;5054854;28;20043;-72
2023/05/14 05:21:52;;;;;;;2.47;2.00;;;14.80;99.90;;;;;;5054835;28;20044;-74
2023/05/14 05:24:18;;;;;;;2.50;1.73;;;14.80;99.90;;;;;;5054777;28;20040;-72
2023/05/14 05:26:43;;;;;;;2.30;2.00;;;14.80;99.90;;;;;;5054791;28;20033;-73
2023/05/14 05:29:09;;;;;;;4.70;2.17;;;14.80;99.90;;;;;;5054684;28;20049;-76
2023/05/14 05:31:35;;;;;;;4.00;2.30;;;14.80;99.90;;;;;;5054990;28;20029;-76
2023/05/14 05:34:02;;;;;;;2.67;1.70;;;14.80;99.90;;;;;;5055021;28;20037;-76
2023/05/14 05:36:27;;;;;;;3.00;2.00;;;14.80;99.90;;;;;;5036564;28;20068;-77
2023/05/14 05:38:54;;;;;;;3.75;1.70;;;14.80;99.90;;;;;;5054695;28;20080;-76
2023/05/14 05:41:19;;;;;;;3.78;1.90;;;14.80;99.90;;;;;;5054631;28;20037;-76
2023/05/14 05:43:45;;;;;;;3.20;1.50;;;14.80;99.90;;;;;;5054709;28;20394;-76
2023/05/14 05:46:11;;;;;;;2.10;1.25;;;14.80;99.90;;;;;;5054291;28;20037;-75
2023/05/14 05:48:37;;;;;;;2.75;1.65;;;14.80;99.90;;;;;;5054392;28;20083;-76
2023/05/14 05:51:03;;;;;;;7.10;1.77;;;14.90;99.90;;;;;;5055114;28;20029;-72
2023/05/14 05:53:29;;;;;;;3.65;1.63;;;14.90;99.90;;;;;;5055330;28;20505;-72
2023/05/14 05:55:54;;;;;;;2.35;1.50;;;14.90;99.90;;;;;;5055210;28;20435;-73
2023/05/14 05:58:20;;;;;;;4.57;1.50;;;15.00;99.90;;;;;;5036848;28;20043;-72
2023/05/14 06:00:46;;;;;;;3.35;1.48;;;15.00;99.90;;;;;;5054790;28;20453;-72
2023/05/14 06:24:58;;;;;;;5.15;1.55;;;15.10;99.90;;;;;;4733673;30;20514;-73
2023/05/14 06:28:16;;;;;;;1.40;1.30;;;15.20;99.90;;;;;;4715266;30;20528;-71
2023/05/14 06:30:42;;;;;;;1.38;1.00;;;15.20;99.90;;;;;;4697730;30;20452;-71
2023/05/14 06:33:08;;;;;;;2.20;1.45;;;15.20;99.90;;;;;;4731276;30;20484;-72
2023/05/14 06:35:35;;;;;;;4.68;1.35;;;15.20;99.90;;;;;;4911833;28;20094;-75
2023/05/14 06:38:01;;;;;;;2.97;1.40;;;15.20;99.90;;;;;;5005120;28;20049;-72
2023/05/14 06:40:27;;;;;;;1.75;1.00;;;15.20;99.90;;;;;;5013338;28;20030;-72
2023/05/14 06:42:53;;;;;;;2.03;1.15;;;15.20;99.90;;;;;;5010994;28;20045;-72
2023/05/14 06:45:19;;;;;;;2.80;1.00;;;15.20;99.90;;;;;;5011171;28;20109;-72
2023/05/14 06:47:45;;;;;;;2.28;1.10;;;15.30;99.90;;;;;;5013175;28;20034;-72
2023/05/14 06:50:11;;;;;;;4.03;1.40;;;15.30;99.90;;;;;;5013807;28;20037;-71
2023/05/14 06:52:37;;;;;;;1.92;1.10;;;15.30;99.90;;;;;;5013383;28;20096;-72
2023/05/14 06:55:03;;;;;;;3.08;1.25;;;15.40;99.90;;;;;;5013520;28;20491;-72
2023/05/14 06:57:29;;;;;;;1.88;1.00;;;15.40;99.90;;;;;;5013623;28;20499;-72
2023/05/14 06:59:56;;;;;;;4.88;1.60;;;15.40;99.90;;;;;;5013384;28;20088;-74
2023/05/14 07:02:21;;;;;;;4.57;1.23;;;15.50;99.90;;;;;;5013439;28;20030;-72
2023/05/14 07:04:47;;;;;;;2.33;1.42;;;15.60;99.90;;;;;;5013340;28;20583;-71
2023/05/14 07:07:17;;;;;;;2.53;1.10;;;15.60;99.90;;;;;;5013353;28;20108;-72
2023/05/14 07:09:42;;;;;;;2.65;1.20;;;15.60;99.90;;;;;;5013314;28;20040;-72
2023/05/14 07:12:08;;;;;;;3.60;1.58;;;15.70;99.90;;;;;;5013105;28;20037;-72
2023/05/14 07:14:34;;;;;;;2.08;1.20;;;15.70;99.90;;;;;;5009571;28;20045;-72
2023/05/14 07:17:00;;;;;;;2.47;1.13;;;15.70;99.90;;;;;;5010456;28;20042;-72
2023/05/14 07:19:27;;;;;;;4.18;1.30;;;15.70;99.90;;;;;;5011601;28;20033;-71
2023/05/14 07:21:53;;;;;;;1.40;1.05;;;15.70;99.90;;;;;;5012810;28;20041;-71
2023/05/14 07:24:19;;;;;;;1.00;0.90;;;15.80;99.90;;;;;;5013012;28;20041;-74
2023/05/14 07:26:45;;;;;;;1.48;0.90;;;15.80;99.90;;;;;;5042507;23;20098;-71
2023/05/14 07:29:11;;;;;;;4.82;1.00;;;15.80;99.90;;;;;;5052723;28;20032;-71
2023/05/14 07:31:36;;;;;;;1.58;0.90;;;15.80;99.90;;;;;;5052624;28;20398;-72
2023/05/14 07:34:02;;;;;;;4.15;1.85;;;15.80;99.90;;;;;;5053034;28;20033;-71
2023/05/14 07:36:28;;;;;;;2.03;0.93;;;15.80;99.90;;;;;;5052043;28;20079;-72
2023/05/14 07:38:54;;;;;;;2.15;0.98;;;15.80;99.90;;;;;;5051416;28;20090;-73
2023/05/14 07:41:20;;;;;;;3.50;1.00;;;15.80;99.90;;;;;;5034353;28;20032;-73
2023/05/14 07:43:46;;;;;;;1.20;0.82;;;15.80;99.90;;;;;;5051840;28;20033;-73
2023/05/14 07:46:11;;;;;;;1.27;0.90;;;15.90;99.90;;;;;;5052535;28;20538;-74
2023/05/14 07:48:37;;;;;;;8.15;1.10;;;15.90;99.90;;;;;;5051776;28;20498;-74
2023/05/14 07:51:03;;;;;;;1.13;0.60;;;16.00;99.90;;;;;;5051213;28;20068;-72
2023/05/14 07:53:29;;;;;;;0.85;0.60;;;16.00;99.90;;;;;;5049907;28;20041;-73
2023/05/14 07:55:55;;;;;;;2.30;0.77;;;16.00;99.40;;;;;;5032050;28;20040;-73
2023/05/14 07:58:20;;;;;;;1.63;0.80;;;16.00;99.00;;;;;;5048926;28;20133;-72
2023/05/14 08:00:46;;;;;;;1.17;0.90;;;16.00;99.00;;;;;;5050353;28;20033;-73
2023/05/14 08:03:12;;;;;;;1.27;1.00;;;16.10;99.60;;;;;;5051692;28;20117;-72
2023/05/14 08:05:38;;;;;;;4.05;1.10;;;16.00;99.90;;;;;;5052042;28;20052;-73
2023/05/14 08:08:03;;;;;;;2.50;1.17;;;16.00;99.90;;;;;;5052314;28;20033;-72
2023/05/14 08:10:29;;;;;;;4.68;0.90;;;16.00;99.90;;;;;;5052152;28;20037;-72
2023/05/14 08:12:55;;;;;;;3.08;0.80;;;16.00;99.90;;;;;;5050882;28;20111;-72
2023/05/14 08:15:21;;;;;;;1.20;0.73;;;16.10;99.90;;;;;;5052298;28;20028;-73
2023/05/14 08:17:47;;;;;;;2.72;0.98;;;16.00;99.50;;;;;;5051997;28;20036;-73
2023/05/14 08:20:13;;;;;;;1.80;0.93;;;16.10;99.90;;;;;;5051635;28;20059;-73
2023/05/14 08:22:39;;;;;;;2.10;0.90;;;16.10;99.90;;;;;;5052079;28;20040;-73
2023/05/14 08:25:05;;;;;;;1.52;0.90;;;16.00;99.90;;;;;;5052035;28;20029;-73
2023/05/14 08:27:31;;;;;;;2.20;1.27;;;16.10;99.90;;;;;;5051677;28;20112;-73
2023/05/14 08:29:57;;;;;;;2.35;0.80;;;16.10;99.90;;;;;;5052171;28;20029;-74
2023/05/14 08:32:22;;;;;;;3.17;0.85;;;16.10;99.90;;;;;;5051997;28;20029;-75
2023/05/14 08:34:48;;;;;;;1.77;1.10;;;16.10;99.90;;;;;;5051690;28;20033;-72
2023/05/14 08:37:14;;;;;;;3.17;0.82;;;16.10;99.90;;;;;;5033911;28;20041;-71
2023/05/14 08:39:40;;;;;;;3.45;1.08;;;16.20;99.90;;;;;;5052163;28;20083;-71
2023/05/14 08:42:06;;;;;;;1.48;1.10;;;16.20;99.90;;;;;;5052468;28;20137;-72
2023/05/14 08:44:57;;;;;;;2.35;1.00;;;16.20;99.90;;;;;;5055472;28;20594;-70
2023/05/14 08:47:23;;;;;;;0.88;0.70;;;16.30;99.90;;;;;;5055600;28;20428;-70
2023/05/14 08:49:59;;;;;;;2.00;0.90;;;16.30;98.30;;;;;;5055504;28;20037;-70
2023/05/14 08:52:25;;;;;;;4.55;1.00;;;16.30;97.90;;;;;;5055565;28;20542;-72
2023/05/14 08:54:52;;;;;;;4.85;0.80;;;16.40;98.00;;;;;;5055485;28;20068;-70
2023/05/14 08:57:20;;;;;;;1.63;0.85;;;16.40;98.00;;;;;;5037103;28;20051;-72
2023/05/14 08:59:46;;;;;;;1.80;0.70;;;16.40;99.90;;;;;;5055693;28;20034;-72
2023/05/14 09:02:16;;;;;;;3.85;1.38;;;16.40;99.00;;;;;;5035489;28;20025;-71
2023/05/14 09:04:42;;;;;;;3.33;1.10;;;16.30;97.80;;;;;;5035277;28;20029;-70
2023/05/14 09:07:08;;;;;;;3.63;0.90;;;16.30;96.90;;;;;;5034899;28;20519;-71
2023/05/14 09:09:34;;;;;;;13.05;7.35;;;16.30;96.60;;;;;;5035128;28;20030;-71
2023/05/14 09:12:00;;;;;;;42.85;8.02;;;16.30;98.30;;;;;;5035227;28;20479;-70
2023/05/14 09:14:26;;;;;;;30.52;2.53;;;16.20;97.00;;;;;;5035076;28;20116;-70
2023/05/14 09:16:51;;;;;;;3.20;0.80;;;16.20;99.00;;;;;;5035054;28;20042;-70
2023/05/14 09:19:18;;;;;;;1.10;0.75;;;16.20;98.40;;;;;;5035093;28;20056;-71
2023/05/14 09:21:45;;;;;;;3.00;1.00;;;16.20;97.90;;;;;;5050119;28;20025;-71
2023/05/14 09:24:22;;;;;;;4.45;0.88;;;16.20;97.90;;;;;;5054511;28;20486;-71
2023/05/14 09:26:56;;;;;;;1.20;0.70;;;16.20;98.00;;;;;;5054262;28;20037;-71
2023/05/14 09:29:27;;;;;;;3.03;0.80;;;16.20;97.80;;;;;;5054333;28;20059;-71
2023/05/14 09:31:53;;;;;;;1.20;0.65;;;16.10;98.60;;;;;;5036179;28;20025;-71
2023/05/14 09:34:33;;;;;;;1.13;0.70;;;16.20;99.40;;;;;;5053487;28;20149;-71
2023/05/14 09:37:01;;;;;;;2.47;1.20;;;16.20;98.80;;;;;;5053721;28;20043;-71
2023/05/14 09:39:27;;;;;;;4.00;1.15;;;16.20;98.90;;;;;;5054304;28;20048;-71
2023/05/14 09:41:53;;;;;;;1.27;0.88;;;16.20;98.40;;;;;;5054063;28;20459;-71
2023/05/14 09:44:20;;;;;;;1.25;0.82;;;16.20;98.70;;;;;;5053940;28;20047;-71
2023/05/14 09:46:46;;;;;;;3.50;0.93;;;16.30;98.50;;;;;;5054239;28;20528;-71
2023/05/14 09:49:12;;;;;;;1.50;1.02;;;16.30;99.20;;;;;;5054119;28;20029;-69
2023/05/14 09:51:38;;;;;;;4.97;1.30;;;16.30;99.90;;;;;;5052177;28;20043;-71
2023/05/14 09:54:05;;;;;;;3.28;1.05;;;16.40;99.90;;;;;;5034139;28;20067;-71
2023/05/14 09:56:35;;;;;;;3.55;1.17;;;16.40;99.00;;;;;;5052831;28;20467;-76
2023/05/14 09:59:01;;;;;;;1.85;1.45;;;16.40;99.20;;;;;;5053039;28;20044;-75
2023/05/14 10:01:29;;;;;;;1.38;1.00;;;16.40;99.00;;;;;;5053045;28;20115;-76
2023/05/14 10:03:55;;;;;;;1.98;1.10;;;16.60;98.60;;;;;;5036174;28;20556;-75
2023/05/14 10:06:27;;;;;;;5.10;1.10;;;16.60;98.50;;;;;;5053843;28;20513;-74
2023/05/14 10:08:55;;;;;;;1.03;0.73;;;16.60;98.10;;;;;;5052817;28;20025;-74
2023/05/14 10:11:25;;;;;;;1.27;0.90;;;16.70;98.10;;;;;;5051168;28;20040;-73
2023/05/14 10:14:06;;;;;;;0.55;0.50;;;16.70;98.10;;;;;;5033210;28;20483;-76
2023/05/14 10:16:34;;;;;;;0.70;0.40;;;16.70;97.70;;;;;;5053586;28;20382;-76
2023/05/14 10:19:09;;;;;;;2.60;0.57;;;16.70;97.20;;;;;;5053707;28;20052;-74
2023/05/14 10:21:37;;;;;;;0.73;0.32;;;16.70;96.80;;;;;;5052320;28;20041;-76
2023/05/14 10:24:04;;;;;;;0.50;0.30;;;16.70;96.00;;;;;;5051177;28;20041;-76
2023/05/14 10:26:38;;;;;;;1.77;0.40;;;16.60;95.90;;;;;;5050933;28;20514;-76
2023/05/14 10:29:04;;;;;;;0.95;0.40;;;16.60;95.60;;;;;;5053644;28;20035;-76
2023/05/14 10:31:50;;;;;;;1.02;0.65;;;16.60;95.70;;;;;;5053620;28;20112;-76
2023/05/14 10:34:39;;;;;;;0.95;0.50;;;16.60;96.00;;;;;;5053691;28;20059;-76
2023/05/14 10:37:13;;;;;;;1.10;0.47;;;16.60;95.90;;;;;;5053992;28;20498;-75
2023/05/14 10:39:39;;;;;;;1.55;0.50;;;16.60;96.10;;;;;;5053708;28;20029;-76
2023/05/14 10:42:07;;;;;;;1.02;0.40;;;16.60;96.40;;;;;;5053462;28;20029;-75
2023/05/14 10:44:34;;;;;;;1.45;0.50;;;16.50;96.30;;;;;;5053438;28;20498;-76
2023/05/14 10:47:02;;;;;;;0.50;0.40;;;16.50;96.40;;;;;;5035437;28;20390;-76
2023/05/14 10:49:27;;;;;;;1.40;0.50;;;16.50;96.70;;;;;;5053204;28;20036;-76
2023/05/14 10:51:53;;;;;;;1.05;0.50;;;16.50;96.90;;;;;;5053463;28;20417;-76
2023/05/14 10:54:21;;;;;;;0.65;0.47;;;16.50;96.90;;;;;;5053335;28;20095;-76
2023/05/14 10:56:48;;;;;;;1.52;0.47;;;16.50;97.00;;;;;;5053036;28;20037;-76
2023/05/14 10:59:16;;;;;;;0.60;0.32;;;16.50;97.50;;;;;;5050466;28;20059;-76
2023/05/14 11:01:43;;;;;;;1.75;0.30;;;16.50;97.40;;;;;;5050226;28;20094;-76
2023/05/14 11:04:17;;;;;;;0.30;0.30;;;16.50;96.70;;;;;;5052322;28;20494;-76
2023/05/14 11:06:46;;;;;;;1.10;0.30;;;16.50;96.70;;;;;;5035142;28;20029;-75
2023/05/14 11:09:16;;;;;;;3.70;0.70;;;16.50;96.60;;;;;;5053184;28;20035;-75
2023/05/14 11:11:42;;;;;;;3.45;1.10;;;16.50;96.20;;;;;;5035534;28;20371;-76
2023/05/14 11:14:09;;;;;;;1.35;1.10;;;16.60;95.70;;;;;;5053042;28;20044;-75
2023/05/14 11:16:36;;;;;;;0.95;0.70;;;16.50;96.10;;;;;;5052782;28;20036;-75
2023/05/14 11:19:03;;;;;;;7.35;1.00;;;16.50;96.40;;;;;;5052854;28;20427;-76
2023/05/14 11:21:33;;;;;;;9.75;3.00;;;16.50;96.20;;;;;;5052638;28;20026;-75
2023/05/14 11:24:02;;;;;;;3.80;1.90;;;16.50;96.60;;;;;;5050512;28;20033;-75
2023/05/14 11:26:28;;;;;;;1.65;1.10;;;16.50;96.70;;;;;;5049865;28;20490;-75
2023/05/14 11:28:54;;;;;;;2.22;1.40;;;16.50;96.60;;;;;;5050202;28;20041;-85
2023/05/14 11:31:21;;;;;;;2.25;1.20;;;16.50;96.90;;;;;;5052029;28;20146;-80
2023/05/14 11:33:46;;;;;;;3.67;1.20;;;16.50;96.60;;;;;;5052990;28;20044;-75
2023/05/14 11:36:13;;;;;;;0.57;0.50;;;16.50;96.30;;;;;;5052840;28;20033;-75
2023/05/14 11:38:47;;;;;;;0.90;0.60;;;16.40;96.20;;;;;;5052366;28;20045;-75
2023/05/14 11:41:14;;;;;;;1.55;0.55;;;16.40;96.00;;;;;;5052600;28;20074;-75
2023/05/14 11:43:40;;;;;;;0.98;0.70;;;16.40;96.00;;;;;;5052398;28;20401;-75
2023/05/14 11:46:06;;;;;;;3.38;0.90;;;16.30;96.20;;;;;;5052234;28;20029;-75
2023/05/14 11:48:32;;;;;;;1.10;0.90;;;16.30;95.90;;;;;;5052582;28;20040;-75
2023/05/14 11:50:58;;;;;;;2.42;1.08;;;16.20;96.10;;;;;;5034057;28;20063;-76
2023/05/14 11:53:25;;;;;;;2.58;1.58;;;16.20;96.50;;;;;;5051332;28;20367;-75
2023/05/14 11:55:53;;;;;;;3.38;1.45;;;16.20;96.70;;;;;;5051848;28;20559;-75
2023/05/14 11:58:19;;;;;;;2.50;0.90;;;16.20;97.10;;;;;;5051450;28;20036;-75
2023/05/14 12:00:49;;;;;;;0.88;0.68;;;16.10;97.20;;;;;;5051394;28;20100;-75
2023/05/14 12:03:15;;;;;;;2.58;0.70;;;16.10;97.10;;;;;;5051549;28;20041;-75
2023/05/14 12:05:53;;;;;;;1.75;0.80;;;16.00;97.40;;;;;;5050279;28;20530;-75
2023/05/14 12:08:20;;;;;;;2.53;0.90;;;16.00;97.90;;;;;;5049839;28;20148;-75
2023/05/14 12:10:46;;;;;;;2.05;0.60;;;16.00;98.30;;;;;;5050740;28;20029;-75
2023/05/14 12:13:16;;;;;;;1.20;0.70;;;16.00;98.10;;;;;;5049913;28;20475;-75
2023/05/14 12:15:45;;;;;;;1.00;0.63;;;15.90;98.10;;;;;;5049590;28;20120;-75
2023/05/14 12:18:11;;;;;;;1.38;0.70;;;15.90;98.50;;;;;;5055268;28;20047;-76
2023/05/14 12:20:37;;;;;;;1.77;0.98;;;15.90;98.80;;;;;;5055566;28;20036;-74
2023/05/14 12:23:03;;;;;;;4.25;1.30;;;15.90;99.30;;;;;;5055826;28;20107;-73
2023/05/14 12:25:29;;;;;;;2.03;0.80;;;15.80;99.80;;;;;;5056063;28;20108;-74
2023/05/14 12:27:54;;;;;;;2.33;1.05;;;15.80;99.70;;;;;;5055611;28;20129;-74
2023/05/14 12:30:20;;;;;;;1.95;0.70;;;15.70;99.90;;;;;;5055540;28;20029;-73
2023/05/14 12:32:47;;;;;;;3.75;0.85;;;15.70;99.90;;;;;;5055610;28;20056;-73
2023/05/14 12:35:13;;;;;;;0.73;0.68;;;15.70;99.70;;;;;;5055446;28;20505;-73
2023/05/14 12:37:39;;;;;;;1.80;0.98;;;15.60;99.80;;;;;;5055267;28;20045;-73
2023/05/14 12:40:08;;;;;;;2.83;0.90;;;15.60;99.90;;;;;;5038006;28;20033;-73
2023/05/14 12:42:33;;;;;;;1.42;1.00;;;15.60;99.90;;;;;;5055285;28;20067;-74
2023/05/14 12:45:04;;;;;;;2.15;1.45;;;15.60;99.90;;;;;;5055189;28;20107;-73
2023/05/14 12:47:30;;;;;;;2.35;0.90;;;15.60;99.90;;;;;;5055754;28;20033;-73
2023/05/14 12:49:56;;;;;;;2.50;1.00;;;15.60;99.90;;;;;;5055984;28;20033;-73
2023/05/14 12:52:22;;;;;;;1.83;0.82;;;15.60;99.90;;;;;;5055213;28;20395;-74
2023/05/14 12:54:47;;;;;;;1.52;0.90;;;15.50;99.90;;;;;;5054969;28;20037;-73
2023/05/14 12:57:13;;;;;;;2.67;1.25;;;15.50;99.90;;;;;;5055076;28;20057;-73
2023/05/14 12:59:39;;;;;;;3.47;0.77;;;15.50;99.90;;;;;;5055074;28;20037;-73
2023/05/14 13:02:06;;;;;;;1.48;0.73;;;15.50;99.90;;;;;;5037256;28;20033;-74
2023/05/14 13:04:32;;;;;;;1.52;0.65;;;15.30;99.90;;;;;;5054911;28;20036;-73
2023/05/14 13:06:58;;;;;;;2.38;0.80;;;15.30;99.90;;;;;;5053777;28;20039;-73
2023/05/14 13:09:26;;;;;;;2.47;0.93;;;15.30;99.90;;;;;;5055037;28;20029;-73
2023/05/14 13:11:52;;;;;;;1.92;0.70;;;15.30;99.90;;;;;;5055131;28;20517;-73
2023/05/14 13:14:18;;;;;;;2.42;0.80;;;15.40;99.90;;;;;;5055125;28;20474;-73
2023/05/14 13:16:44;;;;;;;2.00;0.70;;;15.40;99.90;;;;;;5054747;28;20032;-74
2023/05/14 13:19:09;;;;;;;1.08;0.70;;;15.40;99.90;;;;;;5054944;28;20044;-73
2023/05/14 13:21:35;;;;;;;1.08;0.68;;;15.40;99.90;;;;;;5054893;28;20032;-73
2023/05/14 13:24:01;;;;;;;3.58;0.90;;;15.40;99.90;;;;;;5054681;28;20364;-74
2023/05/14 13:26:27;;;;;;;0.90;0.60;;;15.40;99.90;;;;;;5053364;28;20041;-74
2023/05/14 13:28:53;;;;;;;11.98;1.25;;;15.50;99.90;;;;;;5053878;28;20099;-74
2023/05/14 13:31:18;;;;;;;2.55;0.60;;;15.50;99.90;;;;;;5054219;28;20029;-73
2023/05/14 13:33:44;;;;;;;2.75;0.70;;;15.50;99.90;;;;;;5053771;28;20033;-74
2023/05/14 13:36:12;;;;;;;3.50;0.60;;;15.60;99.90;;;;;;5054537;28;20044;-74
2023/05/14 13:38:38;;;;;;;0.60;0.50;;;15.60;99.90;;;;;;5054298;28;20078;-74
2023/05/14 13:41:04;;;;;;;1.17;0.50;;;15.60;99.90;;;;;;5054675;28;20119;-74
2023/05/14 13:43:34;;;;;;;1.23;0.65;;;15.60;99.90;;;;;;5053945;28;20052;-73
2023/05/14 13:46:01;;;;;;;0.82;0.73;;;15.70;99.90;;;;;;5054248;28;20036;-73
2023/05/14 13:48:27;;;;;;;1.45;0.70;;;15.70;99.90;;;;;;5054633;28;20041;-73
2023/05/14 13:50:53;;;;;;;0.60;0.60;;;15.70;99.90;;;;;;5054625;28;20037;-73
2023/05/14 13:53:20;;;;;;;1.63;0.70;;;15.70;99.90;;;;;;5054371;28;20033;-73
2023/05/14 13:55:46;;;;;;;2.67;0.70;;;15.70;99.90;;;;;;5054613;28;20143;-73
2023/05/14 13:58:12;;;;;;;2.38;0.60;;;15.70;99.90;;;;;;5054438;28;20041;-73
2023/05/14 14:00:38;;;;;;;2.65;0.60;;;15.70;99.90;;;;;;5054123;28;20021;-73
2023/05/14 14:03:04;;;;;;;1.20;0.80;;;15.70;99.90;;;;;;5054227;28;20032;-73
2023/05/14 14:05:30;;;;;;;1.95;0.77;;;15.80;99.90;;;;;;5054086;28;20052;-74
2023/05/14 14:07:56;;;;;;;1.52;0.73;;;15.70;99.90;;;;;;5035997;28;20390;-74
2023/05/14 14:10:22;;;;;;;2.28;0.68;;;15.80;99.90;;;;;;5052843;28;20509;-73
2023/05/14 14:12:48;;;;;;;1.35;0.70;;;15.80;99.90;;;;;;5035869;28;20036;-74
2023/05/14 14:15:14;;;;;;;5.45;0.80;;;15.80;99.90;;;;;;5053619;28;20025;-74